Pays
Station

 

Conditions  météo  pour  Orsta-Volda/Hovden  -  Norvège    Norvège

  
13 °C
    
 
 

METAR pour Orsta-Volda/Hovden :

ENOV 161950Z VRB03KT 9999 -RA FEW035 SCT045 BKN055 13/12 Q1001 RMK WIND 2175FT 16017KT

 

Voici le bulletin pour Orsta-Volda/Hovden - Norvège.
 
Le bulletin a été fait il y a 14 minutes, à 19:50 UTC .
Le vent soufflait à la vitesse de 1.5 mètres par seconde de direction variable.
 
La température était de 13 °C, avec un point de rosée à 12 °C.
La pression atmosphérique était de 1001 hPa.
L'humidité relative était de 93.6%.
 
Il y avait 1 à 2/8ème de nébulosité à une hauteur de 1067 mètres, 3 à 4/8ème de nébulosité à une hauteur de 1372 mètres et 5 à 7/8ème de nébulosité à une hauteur de 1676 mètres.
 
La visibilité globale était de supérieure à 10 kilomètres.
 
Actuellement léger/legère pluie.

 
 
 

Pays :   A   B   C   D   E   F   G   H   I   J   K   L   M   N   O   P   Q   R   S   T   U   V   W   Y   Z

 

Partenaires :  Info Météo avec Met'info
Météo Marine avec MeteoMarine.net
Infos Site  |  Infos Légales  |  Crédits  |  Confidentialité
Contactez-nous  |  Ajouter aux favoris
© 2013-2018 METAR - Tous droits réservés